Time;durP1;ratioP1;P1;durP2;ratioP2;P2;SDS_P1;SDS_P2;PMS_P1;PMS_P2;Temp;Humidity;BMP_temperature;BMP_pressure;BME280_temperature;BME280_humidity;BME280_pressure;Samples;Min_cycle;Max_cycle;Signal;HPM_P1;HPM_P2
2023/01/21 00:01:41;;;;;;;;;0.00;0.00;;;;;;;;5011584;28;8817;-68
2023/01/21 00:04:06;;;;;;;;;3.00;3.00;;;;;;;;5011542;28;8837;-68
2023/01/21 00:06:31;;;;;;;;;1.00;1.00;;;;;;;;5011623;28;8797;-67
2023/01/21 00:09:00;;;;;;;;;0.67;0.67;;;;;;;;5010075;28;8818;-68
2023/01/21 00:11:25;;;;;;;;;2.33;0.67;;;;;;;;5011630;28;8895;-69
2023/01/21 00:13:50;;;;;;;;;2.33;2.33;;;;;;;;5011940;28;8802;-68
2023/01/21 00:16:15;;;;;;;;;1.00;1.00;;;;;;;;5011636;28;8928;-69
2023/01/21 00:18:41;;;;;;;;;1.00;1.00;;;;;;;;5011107;28;8830;-68
2023/01/21 00:21:06;;;;;;;;;1.00;1.00;;;;;;;;5011145;28;8925;-68
2023/01/21 00:23:31;;;;;;;;;1.00;1.00;;;;;;;;5010982;28;8829;-67
2023/01/21 00:25:57;;;;;;;;;3.33;1.00;;;;;;;;5011002;28;8803;-68
2023/01/21 00:28:23;;;;;;;;;3.00;0.33;;;;;;;;5011025;28;8798;-67
2023/01/21 00:30:48;;;;;;;;;3.00;1.00;;;;;;;;5010881;28;8803;-68
2023/01/21 00:33:13;;;;;;;;;0.33;0.33;;;;;;;;5011048;28;8807;-67
2023/01/21 00:35:40;;;;;;;;;4.00;1.00;;;;;;;;5010942;28;8814;-68
2023/01/21 00:38:06;;;;;;;;;4.00;3.00;;;;;;;;5010588;28;8833;-67
2023/01/21 00:40:31;;;;;;;;;1.00;1.00;;;;;;;;5010631;28;8806;-67
2023/01/21 00:42:56;;;;;;;;;1.00;1.00;;;;;;;;5010592;28;8806;-68
2023/01/21 00:45:22;;;;;;;;;1.00;1.00;;;;;;;;5010645;28;8810;-66
2023/01/21 00:47:47;;;;;;;;;1.67;1.67;;;;;;;;5010580;28;8786;-68
2023/01/21 00:50:12;;;;;;;;;1.00;1.00;;;;;;;;5010606;28;9485;-68
2023/01/21 00:52:37;;;;;;;;;2.33;2.33;;;;;;;;5010525;28;8876;-68
2023/01/21 00:55:03;;;;;;;;;3.00;3.00;;;;;;;;5010536;28;8798;-67
2023/01/21 00:57:29;;;;;;;;;3.67;3.67;;;;;;;;5009372;28;8818;-67
2023/01/21 00:59:54;;;;;;;;;1.00;1.00;;;;;;;;5009032;28;8839;-67
2023/01/21 01:02:19;;;;;;;;;4.00;3.00;;;;;;;;5009103;28;8786;-68
2023/01/21 01:04:44;;;;;;;;;4.00;3.00;;;;;;;;5010359;28;8798;-67
2023/01/21 01:07:10;;;;;;;;;2.33;2.33;;;;;;;;5008825;28;8810;-68
2023/01/21 01:09:35;;;;;;;;;4.67;1.67;;;;;;;;5009706;28;8923;-67
2023/01/21 01:12:00;;;;;;;;;2.33;2.33;;;;;;;;5009047;28;8911;-68
2023/01/21 01:14:26;;;;;;;;;3.00;3.00;;;;;;;;5010438;28;8953;-66
2023/01/21 01:16:51;;;;;;;;;3.33;3.33;;;;;;;;5010191;28;8845;-68
2023/01/21 01:19:16;;;;;;;;;3.33;3.33;;;;;;;;5010026;28;8853;-68
2023/01/21 01:21:42;;;;;;;;;0.67;0.67;;;;;;;;5010383;28;8876;-68
2023/01/21 01:24:07;;;;;;;;;4.00;3.00;;;;;;;;5010052;28;8790;-67
2023/01/21 01:26:35;;;;;;;;;3.00;1.00;;;;;;;;5010065;28;8921;-68
2023/01/21 01:29:01;;;;;;;;;2.33;2.33;;;;;;;;5010037;28;8798;-67
2023/01/21 01:31:26;;;;;;;;;1.67;1.67;;;;;;;;5010170;28;8828;-68
2023/01/21 01:33:52;;;;;;;;;4.00;3.00;;;;;;;;4992409;28;8810;-67
2023/01/21 01:36:18;;;;;;;;;4.33;2.33;;;;;;;;5008620;28;8802;-67
2023/01/21 01:38:44;;;;;;;;;3.67;2.33;;;;;;;;5009815;28;8873;-68
2023/01/21 01:41:14;;;;;;;;;4.67;1.00;;;;;;;;5009846;28;8818;-68
2023/01/21 01:43:56;;;;;;;;;6.00;1.00;;;;;;;;5010013;28;8783;-68
2023/01/21 01:46:23;;;;;;;;;6.00;1.00;;;;;;;;5008453;28;8814;-68
2023/01/21 01:48:54;;;;;;;;;5.33;3.00;;;;;;;;5010059;28;8790;-68
2023/01/21 01:51:22;;;;;;;;;1.00;1.00;;;;;;;;5009770;28;8794;-67
2023/01/21 01:53:47;;;;;;;;;4.00;4.00;;;;;;;;5010056;28;9537;-67
2023/01/21 01:56:13;;;;;;;;;3.67;1.00;;;;;;;;5009843;28;8845;-68
2023/01/21 01:58:39;;;;;;;;;1.00;1.00;;;;;;;;5009587;28;8830;-68
2023/01/21 02:01:04;;;;;;;;;3.00;3.00;;;;;;;;5009803;28;8786;-71
2023/01/21 02:03:44;;;;;;;;;3.33;1.67;;;;;;;;5008128;28;8841;-68
2023/01/21 02:06:13;;;;;;;;;4.00;3.00;;;;;;;;5009533;28;8875;-68
2023/01/21 02:08:39;;;;;;;;;3.00;3.00;;;;;;;;5009435;28;8809;-67
2023/01/21 02:11:15;;;;;;;;;3.00;3.00;;;;;;;;5009432;28;9514;-68
2023/01/21 02:13:42;;;;;;;;;3.00;3.00;;;;;;;;5009451;28;8802;-68
2023/01/21 02:16:17;;;;;;;;;1.00;1.00;;;;;;;;5009263;28;8911;-68
2023/01/21 02:18:50;;;;;;;;;3.00;3.00;;;;;;;;5009238;28;8807;-68
2023/01/21 02:21:30;;;;;;;;;3.33;3.33;;;;;;;;5011962;28;8833;-68
2023/01/21 02:23:55;;;;;;;;;4.00;3.00;;;;;;;;5013738;28;8828;-71
2023/01/21 02:26:20;;;;;;;;;3.67;3.67;;;;;;;;5014033;28;9516;-68
2023/01/21 02:28:51;;;;;;;;;3.00;3.00;;;;;;;;5013702;28;8856;-68
2023/01/21 02:31:23;;;;;;;;;4.00;1.00;;;;;;;;5013389;28;8821;-68
2023/01/21 02:34:07;;;;;;;;;3.00;3.00;;;;;;;;5013414;28;8782;-67
2023/01/21 02:36:42;;;;;;;;;3.00;3.00;;;;;;;;5013359;28;8786;-68
2023/01/21 02:39:07;;;;;;;;;6.00;3.00;;;;;;;;5012856;28;8875;-68
2023/01/21 02:41:32;;;;;;;;;5.00;3.00;;;;;;;;5013389;28;9569;-68
2023/01/21 02:43:57;;;;;;;;;10.00;5.33;;;;;;;;5013010;28;8830;-69
2023/01/21 02:46:41;;;;;;;;;9.67;4.00;;;;;;;;5012765;28;8817;-68
2023/01/21 02:49:27;;;;;;;;;4.00;3.00;;;;;;;;5012916;28;8815;-67
2023/01/21 02:51:52;;;;;;;;;3.00;1.00;;;;;;;;5012070;28;8925;-67
2023/01/21 02:54:36;;;;;;;;;4.67;3.00;;;;;;;;5012722;28;8811;-67
2023/01/21 02:57:01;;;;;;;;;7.67;3.33;;;;;;;;5012811;28;9532;-68
2023/01/21 02:59:27;;;;;;;;;4.00;3.33;;;;;;;;5012627;28;8923;-67
2023/01/21 03:02:03;;;;;;;;;4.00;3.00;;;;;;;;5012972;28;8775;-67
2023/01/21 03:04:37;;;;;;;;;3.33;3.33;;;;;;;;5013094;28;9501;-67
2023/01/21 03:07:20;;;;;;;;;1.67;1.67;;;;;;;;5012735;28;8794;-67
2023/01/21 03:09:46;;;;;;;;;4.00;3.00;;;;;;;;5012573;28;8818;-67
2023/01/21 03:12:36;;;;;;;;;1.00;1.00;;;;;;;;5012659;28;8980;-67
2023/01/21 03:17:54;;;;;;;;;4.00;4.00;;;;;;;;5012626;28;8806;-67
2023/01/21 03:20:35;;;;;;;;;4.33;3.00;;;;;;;;5012366;28;8924;-67
2023/01/21 03:23:03;;;;;;;;;4.00;3.00;;;;;;;;5012297;28;8806;-67
2023/01/21 03:25:30;;;;;;;;;4.00;0.67;;;;;;;;5010978;28;8818;-68
2023/01/21 03:27:58;;;;;;;;;4.00;3.33;;;;;;;;5012258;28;8807;-68
2023/01/21 03:30:24;;;;;;;;;3.00;3.00;;;;;;;;5012171;28;8896;-68
2023/01/21 03:32:50;;;;;;;;;1.00;1.00;;;;;;;;5011718;28;8798;-67
2023/01/21 03:35:20;;;;;;;;;4.00;2.33;;;;;;;;5011873;28;8798;-68
2023/01/21 03:37:57;;;;;;;;;3.00;2.33;;;;;;;;5012468;28;8897;-68
2023/01/21 03:40:22;;;;;;;;;3.33;3.33;;;;;;;;5012155;28;9567;-67
2023/01/21 03:42:55;;;;;;;;;4.00;3.00;;;;;;;;5011998;28;8806;-67
2023/01/21 03:45:40;;;;;;;;;10.00;3.00;;;;;;;;5011826;28;8798;-67
2023/01/21 03:48:16;;;;;;;;;3.67;3.00;;;;;;;;5010069;28;8814;-68
2023/01/21 03:50:44;;;;;;;;;1.67;1.00;;;;;;;;5011840;28;8802;-67
2023/01/21 03:53:10;;;;;;;;;4.67;3.67;;;;;;;;5011928;28;8807;-68
2023/01/21 03:55:35;;;;;;;;;1.00;1.00;;;;;;;;5011737;28;8809;-68
2023/01/21 03:58:00;;;;;;;;;1.00;1.00;;;;;;;;5011647;28;8809;-67
2023/01/21 04:00:26;;;;;;;;;1.00;1.00;;;;;;;;5011486;28;9600;-67
2023/01/21 04:02:51;;;;;;;;;0.33;0.33;;;;;;;;5011750;28;8840;-69
2023/01/21 04:05:16;;;;;;;;;1.00;1.00;;;;;;;;5011632;28;8810;-69
2023/01/21 04:07:41;;;;;;;;;2.33;2.33;;;;;;;;5011670;28;8810;-69
2023/01/21 04:10:07;;;;;;;;;1.00;1.00;;;;;;;;5011500;28;8916;-68
2023/01/21 04:12:33;;;;;;;;;3.33;2.33;;;;;;;;5009974;28;8868;-68
2023/01/21 04:14:58;;;;;;;;;1.67;1.00;;;;;;;;5009889;28;8825;-68
2023/01/21 04:17:23;;;;;;;;;1.00;1.00;;;;;;;;5011313;28;8959;-68
2023/01/21 04:19:48;;;;;;;;;3.67;3.67;;;;;;;;5011031;28;8949;-68
2023/01/21 04:22:14;;;;;;;;;3.00;3.00;;;;;;;;5026362;28;8806;-69
2023/01/21 04:24:39;;;;;;;;;3.00;1.00;;;;;;;;5011250;28;8790;-68
2023/01/21 04:27:04;;;;;;;;;1.00;1.00;;;;;;;;5010008;28;8814;-68
2023/01/21 04:29:29;;;;;;;;;1.00;1.00;;;;;;;;5011151;28;8822;-69
2023/01/21 04:31:55;;;;;;;;;4.00;2.33;;;;;;;;5011180;28;8794;-68
2023/01/21 04:34:20;;;;;;;;;3.67;3.00;;;;;;;;5011367;28;8794;-68
2023/01/21 04:36:45;;;;;;;;;7.00;2.33;;;;;;;;5011244;28;9111;-68
2023/01/21 04:39:10;;;;;;;;;1.00;1.00;;;;;;;;5011417;28;8864;-69
2023/01/21 04:41:36;;;;;;;;;6.67;1.67;;;;;;;;5011280;28;8821;-69
2023/01/21 04:44:01;;;;;;;;;1.67;1.00;;;;;;;;5010080;28;8802;-69
2023/01/21 04:46:26;;;;;;;;;3.00;1.00;;;;;;;;5010866;28;8805;-69
2023/01/21 04:48:52;;;;;;;;;1.00;1.00;;;;;;;;5010799;28;8912;-69
2023/01/21 04:51:17;;;;;;;;;2.33;2.33;;;;;;;;5010645;28;9049;-69
2023/01/21 04:53:42;;;;;;;;;1.00;1.00;;;;;;;;5010577;28;8811;-68
2023/01/21 04:56:07;;;;;;;;;4.00;1.67;;;;;;;;5010548;28;8815;-69
2023/01/21 04:58:33;;;;;;;;;3.00;3.00;;;;;;;;5008779;28;8834;-69
2023/01/21 05:00:58;;;;;;;;;1.00;1.00;;;;;;;;5010758;28;9616;-68
2023/01/21 05:03:23;;;;;;;;;4.00;3.00;;;;;;;;5010453;28;8794;-68
2023/01/21 05:05:49;;;;;;;;;1.00;1.00;;;;;;;;5010499;28;8826;-68
2023/01/21 05:08:14;;;;;;;;;6.67;3.67;;;;;;;;5010132;28;8880;-69
2023/01/21 05:10:39;;;;;;;;;3.00;1.00;;;;;;;;5008807;28;8814;-68
2023/01/21 05:13:04;;;;;;;;;5.33;3.00;;;;;;;;5008887;28;8810;-69
2023/01/21 05:15:30;;;;;;;;;5.33;3.00;;;;;;;;5009926;28;9481;-67
2023/01/21 05:17:55;;;;;;;;;4.00;3.00;;;;;;;;5010105;28;8814;-68
2023/01/21 05:20:20;;;;;;;;;3.67;2.33;;;;;;;;5010181;28;8830;-68
2023/01/21 05:22:46;;;;;;;;;3.67;3.67;;;;;;;;5010022;28;8833;-67
2023/01/21 05:25:12;;;;;;;;;4.67;4.00;;;;;;;;5010015;28;8807;-68
2023/01/21 05:27:37;;;;;;;;;7.00;4.00;;;;;;;;5010097;28;8798;-67
2023/01/21 05:30:02;;;;;;;;;6.00;6.00;;;;;;;;5009835;28;8806;-68
2023/01/21 05:32:28;;;;;;;;;5.33;3.00;;;;;;;;5010073;28;9703;-68
2023/01/21 05:34:53;;;;;;;;;5.33;4.00;;;;;;;;5010020;28;8978;-68
2023/01/21 05:37:18;;;;;;;;;7.00;6.00;;;;;;;;5009712;28;8799;-67
2023/01/21 05:39:43;;;;;;;;;4.33;3.67;;;;;;;;5009632;28;8834;-68
2023/01/21 05:42:09;;;;;;;;;8.00;4.00;;;;;;;;5009723;28;8794;-68
2023/01/21 05:44:34;;;;;;;;;4.00;4.00;;;;;;;;5009646;28;8902;-69
2023/01/21 05:46:59;;;;;;;;;5.67;4.67;;;;;;;;5008360;28;8818;-67
2023/01/21 05:49:24;;;;;;;;;3.67;3.67;;;;;;;;5024784;28;8909;-69
2023/01/21 05:51:50;;;;;;;;;4.00;2.33;;;;;;;;5009514;28;8783;-68
2023/01/21 05:54:15;;;;;;;;;7.67;5.00;;;;;;;;5009528;28;8818;-68
2023/01/21 05:56:40;;;;;;;;;4.00;3.67;;;;;;;;5009771;28;8810;-68
2023/01/21 05:59:06;;;;;;;;;4.00;4.00;;;;;;;;5009201;28;8862;-68
2023/01/21 06:01:31;;;;;;;;;6.00;4.00;;;;;;;;5010077;28;8818;-68
2023/01/21 06:03:57;;;;;;;;;2.33;2.33;;;;;;;;5009722;28;9607;-68
2023/01/21 06:06:22;;;;;;;;;4.00;3.67;;;;;;;;5009528;28;8807;-68
2023/01/21 06:08:47;;;;;;;;;6.00;6.00;;;;;;;;5009548;28;8822;-67
2023/01/21 06:11:12;;;;;;;;;10.00;5.33;;;;;;;;5009590;28;8791;-68
2023/01/21 06:13:37;;;;;;;;;5.00;5.00;;;;;;;;5009445;28;8798;-68
2023/01/21 06:16:03;;;;;;;;;6.00;6.00;;;;;;;;5009519;28;8803;-69
2023/01/21 06:18:28;;;;;;;;;3.67;3.00;;;;;;;;5009609;28;8905;-68
2023/01/21 06:20:53;;;;;;;;;3.33;3.33;;;;;;;;5009615;28;8794;-67
2023/01/21 06:23:19;;;;;;;;;6.00;4.00;;;;;;;;5021200;28;9530;-68
2023/01/21 06:25:44;;;;;;;;;4.67;3.00;;;;;;;;5029238;28;8804;-68
2023/01/21 06:28:10;;;;;;;;;4.00;4.00;;;;;;;;5029165;28;8847;-68
2023/01/21 06:30:36;;;;;;;;;5.33;5.33;;;;;;;;5029166;28;8784;-68
2023/01/21 06:33:01;;;;;;;;;4.00;4.00;;;;;;;;5029392;28;8813;-68
2023/01/21 06:35:26;;;;;;;;;4.00;4.00;;;;;;;;5027795;28;8812;-67
2023/01/21 06:37:52;;;;;;;;;3.67;3.67;;;;;;;;5027641;28;8846;-68
2023/01/21 06:40:17;;;;;;;;;3.00;3.00;;;;;;;;5029117;28;8990;-68
2023/01/21 06:42:46;;;;;;;;;4.00;4.00;;;;;;;;5028934;28;8878;-68
2023/01/21 06:45:11;;;;;;;;;6.00;4.00;;;;;;;;5029169;28;8815;-68
2023/01/21 06:47:38;;;;;;;;;5.33;3.67;;;;;;;;5027654;28;8854;-69
2023/01/21 06:50:04;;;;;;;;;2.33;2.33;;;;;;;;5028938;28;8844;-69
2023/01/21 06:52:29;;;;;;;;;2.33;2.33;;;;;;;;5027674;28;8834;-67
2023/01/21 06:54:54;;;;;;;;;3.00;3.00;;;;;;;;5029066;28;8784;-68
2023/01/21 06:57:20;;;;;;;;;3.00;3.00;;;;;;;;5028654;28;8847;-67
2023/01/21 06:59:45;;;;;;;;;2.00;1.00;;;;;;;;5028740;28;8867;-67
2023/01/21 07:02:13;;;;;;;;;2.67;2.00;;;;;;;;5028725;28;8834;-67
2023/01/21 07:04:38;;;;;;;;;2.33;1.00;;;;;;;;5028980;28;8799;-68
2023/01/21 07:07:04;;;;;;;;;4.00;1.67;;;;;;;;5029629;28;8830;-67
2023/01/21 07:09:29;;;;;;;;;6.00;3.00;;;;;;;;5032393;28;8807;-73
2023/01/21 07:11:54;;;;;;;;;4.00;1.00;;;;;;;;5028917;28;9037;-68
2023/01/21 07:14:20;;;;;;;;;5.33;4.00;;;;;;;;5031682;28;8866;-69
2023/01/21 07:16:45;;;;;;;;;3.00;1.00;;;;;;;;5031445;28;8816;-68
2023/01/21 07:19:10;;;;;;;;;6.00;4.00;;;;;;;;5031242;28;8824;-68
2023/01/21 07:21:35;;;;;;;;;0.00;0.00;;;;;;;;5031338;28;8823;-68
2023/01/21 07:24:00;;;;;;;;;3.33;1.00;;;;;;;;5028893;28;8796;-68
2023/01/21 07:26:26;;;;;;;;;4.67;2.33;;;;;;;;5028897;28;8848;-69
2023/01/21 07:28:51;;;;;;;;;3.67;1.67;;;;;;;;5030982;28;8889;-69
2023/01/21 07:31:16;;;;;;;;;3.67;3.67;;;;;;;;5031468;28;8946;-69
2023/01/21 07:33:42;;;;;;;;;2.33;2.33;;;;;;;;5031556;28;8951;-69
2023/01/21 07:36:07;;;;;;;;;4.00;3.00;;;;;;;;5031963;28;9575;-69
2023/01/21 07:38:32;;;;;;;;;3.00;0.67;;;;;;;;5031436;28;8881;-69
2023/01/21 07:40:58;;;;;;;;;4.00;1.00;;;;;;;;5030139;28;8958;-69
2023/01/21 07:43:23;;;;;;;;;1.00;1.00;;;;;;;;5029773;28;8904;-69
2023/01/21 07:45:48;;;;;;;;;1.00;1.00;;;;;;;;5031363;28;8772;-68
2023/01/21 07:48:14;;;;;;;;;3.00;1.33;;;;;;;;5030880;28;8854;-68
2023/01/21 07:50:39;;;;;;;;;0.67;0.33;;;;;;;;5030740;28;8965;-68
2023/01/21 07:53:04;;;;;;;;;3.33;3.33;;;;;;;;5046013;28;8957;-67
2023/01/21 07:55:30;;;;;;;;;1.67;1.67;;;;;;;;5030945;28;8815;-67
2023/01/21 07:57:56;;;;;;;;;2.33;2.33;;;;;;;;5030713;28;8812;-68
2023/01/21 08:00:21;;;;;;;;;4.33;2.00;;;;;;;;5030905;28;8847;-67
2023/01/21 08:02:49;;;;;;;;;4.00;2.33;;;;;;;;5031155;28;8820;-67
2023/01/21 08:05:14;;;;;;;;;2.33;2.33;;;;;;;;5031058;28;8792;-67
2023/01/21 08:07:39;;;;;;;;;4.00;2.33;;;;;;;;5030997;28;8848;-67
2023/01/21 08:10:05;;;;;;;;;2.00;2.00;;;;;;;;5030748;28;8834;-66
2023/01/21 08:12:30;;;;;;;;;1.00;1.00;;;;;;;;5031066;28;8924;-67
2023/01/21 08:14:55;;;;;;;;;0.33;0.33;;;;;;;;5031423;28;8808;-67
2023/01/21 08:17:20;;;;;;;;;7.00;6.00;;;;;;;;5030914;28;8910;-68
2023/01/21 09:57:13;;;;;;;;;4.00;4.00;;;;;;;;5083732;28;13344;-73
2023/01/21 09:59:57;;;;;;;;;7.00;2.00;;;;;;;;5086036;28;8820;-72
2023/01/21 10:02:30;;;;;;;;;1.33;1.33;;;;;;;;5086561;28;8812;-72
2023/01/21 10:05:09;;;;;;;;;3.33;3.33;;;;;;;;5086260;28;8788;-71
2023/01/21 10:07:38;;;;;;;;;1.33;1.33;;;;;;;;5086441;28;8835;-72
2023/01/21 10:10:07;;;;;;;;;1.67;1.67;;;;;;;;5102840;28;8802;-72
2023/01/21 10:12:32;;;;;;;;;2.00;1.00;;;;;;;;5106606;28;11449;-70
2023/01/21 10:15:11;;;;;;;;;1.67;1.00;;;;;;;;5106213;28;11446;-71
2023/01/21 10:17:54;;;;;;;;;4.00;2.00;;;;;;;;5064805;28;8928;-71
2023/01/21 10:20:33;;;;;;;;;1.00;1.00;;;;;;;;5060997;28;11640;-71
2023/01/21 10:23:05;;;;;;;;;1.00;1.00;;;;;;;;5083803;28;11457;-73
2023/01/21 10:25:31;;;;;;;;;1.00;1.00;;;;;;;;5067334;28;11460;-72
2023/01/21 10:28:05;;;;;;;;;1.67;1.67;;;;;;;;5049716;28;11562;-73
2023/01/21 10:30:36;;;;;;;;;5.00;2.67;;;;;;;;5067051;28;11475;-71
2023/01/21 10:33:03;;;;;;;;;2.00;2.00;;;;;;;;5085567;28;11442;-72
2023/01/21 10:35:49;;;;;;;;;2.00;2.00;;;;;;;;5080528;28;12234;-71
2023/01/21 10:38:21;;;;;;;;;2.00;2.00;;;;;;;;5084376;28;11471;-70
2023/01/21 10:41:00;;;;;;;;;2.50;2.00;;;;;;;;5088646;28;11506;-71
2023/01/21 10:43:29;;;;;;;;;2.00;2.00;;;;;;;;5083954;28;11444;-72
2023/01/21 10:45:54;;;;;;;;;2.67;2.67;;;;;;;;5023747;28;11433;-71
2023/01/21 10:48:38;;;;;;;;;2.00;2.00;;;;;;;;5025332;28;12201;-71
2023/01/21 10:51:11;;;;;;;;;4.33;2.00;;;;;;;;5043621;28;8782;-71
2023/01/21 10:53:41;;;;;;;;;2.00;2.00;;;;;;;;5043419;28;11583;-72
2023/01/21 10:56:14;;;;;;;;;2.00;2.00;;;;;;;;5025657;28;11448;-71
2023/01/21 10:58:54;;;;;;;;;0.75;0.75;;;;;;;;5024968;28;11443;-70
2023/01/21 11:01:22;;;;;;;;;3.50;2.00;;;;;;;;5024854;28;11387;-71
2023/01/21 11:03:50;;;;;;;;;4.67;1.33;;;;;;;;5024924;28;11515;-71
2023/01/21 11:06:16;;;;;;;;;1.75;1.75;;;;;;;;5023315;28;11432;-70
2023/01/21 11:08:43;;;;;;;;;2.00;2.00;;;;;;;;5010496;28;11523;-73
2023/01/21 11:11:09;;;;;;;;;7.00;3.50;;;;;;;;5011320;28;11423;-72
2023/01/21 11:13:34;;;;;;;;;1.00;1.00;;;;;;;;4991722;28;11431;-70
2023/01/21 11:16:00;;;;;;;;;4.00;1.00;;;;;;;;5009727;28;11638;-73
2023/01/21 11:18:27;;;;;;;;;4.00;4.00;;;;;;;;5010414;28;8866;-74
2023/01/21 11:20:54;;;;;;;;;2.00;2.00;;;;;;;;5009836;28;8820;-74
2023/01/21 11:23:26;;;;;;;;;4.50;4.00;;;;;;;;5006089;28;11450;-77
2023/01/21 11:25:58;;;;;;;;;4.00;4.00;;;;;;;;5010681;28;11439;-76
2023/01/21 11:28:25;;;;;;;;;4.75;2.00;;;;;;;;5011284;28;11404;-75
2023/01/21 11:31:02;;;;;;;;;2.00;2.00;;;;;;;;5010919;28;12300;-75
2023/01/21 11:33:27;;;;;;;;;2.50;1.50;;;;;;;;5010550;28;11531;-76
2023/01/21 11:35:54;;;;;;;;;6.50;4.00;;;;;;;;5010987;28;11510;-76
2023/01/21 11:38:28;;;;;;;;;1.00;1.00;;;;;;;;4991947;28;9613;-73
2023/01/21 11:41:09;;;;;;;;;1.75;1.00;;;;;;;;5010297;28;11615;-77
2023/01/21 11:43:37;;;;;;;;;2.00;2.00;;;;;;;;4992732;28;11511;-73
2023/01/21 11:46:34;;;;;;;;;1.50;1.50;;;;;;;;5010025;28;11459;-78
2023/01/21 11:49:05;;;;;;;;;1.00;1.00;;;;;;;;4967860;28;11495;-73
2023/01/21 11:51:31;;;;;;;;;1.25;1.25;;;;;;;;4968640;28;11557;-73
2023/01/21 11:54:16;;;;;;;;;4.00;2.00;;;;;;;;4969162;28;11475;-72
2023/01/21 11:56:51;;;;;;;;;1.25;1.25;;;;;;;;4969581;28;8914;-73
2023/01/21 11:59:17;;;;;;;;;4.00;4.00;;;;;;;;4969340;28;11473;-73
2023/01/21 12:01:49;;;;;;;;;3.50;2.00;;;;;;;;4969192;28;11600;-73
2023/01/21 12:04:14;;;;;;;;;1.00;1.00;;;;;;;;4969750;28;8806;-73
2023/01/21 12:06:44;;;;;;;;;1.00;1.00;;;;;;;;4968794;28;11522;-75
2023/01/21 12:09:15;;;;;;;;;2.00;2.00;;;;;;;;4969125;28;8823;-75
2023/01/21 12:11:42;;;;;;;;;2.00;2.00;;;;;;;;4971103;28;11519;-74
2023/01/21 12:14:25;;;;;;;;;2.25;1.75;;;;;;;;4969986;28;11519;-75
2023/01/21 12:16:53;;;;;;;;;2.50;1.25;;;;;;;;4969485;28;11500;-73
2023/01/21 12:19:34;;;;;;;;;1.00;1.00;;;;;;;;4968599;28;11497;-75
2023/01/21 12:22:17;;;;;;;;;1.25;1.00;;;;;;;;4968921;28;11491;-73
2023/01/21 12:24:43;;;;;;;;;4.00;4.00;;;;;;;;4991856;28;11503;-70
2023/01/21 12:27:08;;;;;;;;;1.00;1.00;;;;;;;;5010412;28;11634;-68
2023/01/21 12:29:54;;;;;;;;;2.75;1.50;;;;;;;;4992844;28;8821;-71
2023/01/21 12:32:20;;;;;;;;;2.00;2.00;;;;;;;;4992587;28;8821;-69
2023/01/21 12:34:52;;;;;;;;;4.00;1.75;;;;;;;;4992704;28;11602;-70
2023/01/21 12:37:23;;;;;;;;;0.25;0.25;;;;;;;;5010334;28;8921;-70
2023/01/21 12:39:50;;;;;;;;;4.00;1.00;;;;;;;;5010293;28;11488;-73
2023/01/21 12:42:20;;;;;;;;;1.00;1.00;;;;;;;;4992644;28;11461;-71
2023/01/21 12:44:49;;;;;;;;;1.00;1.00;;;;;;;;5009730;28;11418;-68
2023/01/21 12:47:29;;;;;;;;;0.75;0.75;;;;;;;;4992244;28;11465;-68
2023/01/21 12:50:15;;;;;;;;;1.50;1.50;;;;;;;;5009647;28;11435;-68
2023/01/21 12:52:43;;;;;;;;;1.25;1.25;;;;;;;;5009533;28;11436;-68
2023/01/21 12:55:18;;;;;;;;;2.25;1.75;;;;;;;;5008734;28;11436;-69
2023/01/21 12:57:47;;;;;;;;;1.75;1.75;;;;;;;;4991976;28;11437;-68
2023/01/21 13:00:23;;;;;;;;;1.00;1.00;;;;;;;;5010052;28;11407;-68
2023/01/21 13:03:09;;;;;;;;;2.00;2.00;;;;;;;;4992356;28;11428;-69
2023/01/21 13:05:43;;;;;;;;;2.00;2.00;;;;;;;;4989936;28;11518;-69
2023/01/21 13:08:26;;;;;;;;;4.25;1.00;;;;;;;;5010407;28;11407;-68
2023/01/21 13:10:59;;;;;;;;;0.00;0.00;;;;;;;;4992254;28;12135;-67
2023/01/21 13:13:30;;;;;;;;;1.00;1.00;;;;;;;;5009387;28;11411;-68
2023/01/21 13:15:59;;;;;;;;;1.00;1.00;;;;;;;;5022916;28;12158;-67
2023/01/21 13:18:28;;;;;;;;;4.00;3.00;;;;;;;;5009556;28;11507;-68
2023/01/21 13:20:57;;;;;;;;;3.00;1.50;;;;;;;;5009773;28;11412;-67
2023/01/21 13:23:48;;;;;;;;;1.00;0.00;;;;;;;;5010195;28;11492;-69
2023/01/21 13:26:23;;;;;;;;;3.00;1.00;;;;;;;;4929671;29;11568;-67
2023/01/21 13:28:56;;;;;;;;;1.00;1.00;;;;;;;;4930145;29;11556;-68
2023/01/21 13:31:37;;;;;;;;;1.00;1.00;;;;;;;;4934350;28;11465;-69
2023/01/21 13:34:14;;;;;;;;;1.00;1.00;;;;;;;;4947453;28;11449;-68
2023/01/21 13:36:51;;;;;;;;;2.00;1.00;;;;;;;;4949343;28;12206;-68
2023/01/21 13:39:20;;;;;;;;;5.00;4.00;;;;;;;;4949178;28;11448;-67
2023/01/21 13:41:51;;;;;;;;;1.00;1.00;;;;;;;;4948624;28;11484;-69
2023/01/21 13:44:36;;;;;;;;;2.00;2.00;;;;;;;;4947134;28;11569;-68
2023/01/21 13:47:25;;;;;;;;;1.75;1.75;;;;;;;;4948016;28;11567;-69
2023/01/21 13:50:13;;;;;;;;;1.00;1.00;;;;;;;;4948649;28;11449;-68
2023/01/21 13:52:44;;;;;;;;;1.50;0.00;;;;;;;;4947286;28;12425;-65
2023/01/21 13:55:36;;;;;;;;;1.00;1.00;;;;;;;;4944084;28;11453;-67
2023/01/21 13:58:04;;;;;;;;;2.00;2.00;;;;;;;;4931685;29;11580;-67
2023/01/21 14:00:29;;;;;;;;;2.50;1.00;;;;;;;;4946235;29;11428;-67
2023/01/21 14:02:58;;;;;;;;;2.50;2.50;;;;;;;;4964303;28;11583;-66
2023/01/21 14:05:27;;;;;;;;;2.00;2.00;;;;;;;;5000168;28;8847;-68
2023/01/21 14:07:58;;;;;;;;;1.50;1.50;;;;;;;;5007853;28;11476;-67
2023/01/21 14:10:28;;;;;;;;;2.00;2.00;;;;;;;;4991210;28;11572;-69
2023/01/21 14:12:59;;;;;;;;;4.00;1.50;;;;;;;;5008358;28;11499;-69
2023/01/21 14:15:24;;;;;;;;;2.50;2.00;;;;;;;;5020721;28;11461;-68
2023/01/21 14:18:19;;;;;;;;;4.50;2.00;;;;;;;;5035758;23;11447;-66
2023/01/21 14:20:44;;;;;;;;;1.25;1.25;;;;;;;;4958345;28;8819;-67
2023/01/21 14:23:13;;;;;;;;;4.00;2.00;;;;;;;;5028733;28;11509;-68
2023/01/21 14:25:56;;;;;;;;;1.67;1.00;;;;;;;;5027262;28;8824;-66
2023/01/21 14:28:21;;;;;;;;;4.33;1.00;;;;;;;;5029057;28;11420;-66
2023/01/21 14:30:54;;;;;;;;;3.00;2.00;;;;;;;;5028699;28;11385;-67
2023/01/21 14:33:28;;;;;;;;;1.67;1.67;;;;;;;;5028502;28;8806;-68
2023/01/21 14:36:14;;;;;;;;;5.00;1.33;;;;;;;;5028138;28;11407;-68
2023/01/21 14:38:48;;;;;;;;;3.00;3.00;;;;;;;;5028826;28;11404;-68
2023/01/21 14:41:13;;;;;;;;;1.00;0.00;;;;;;;;5028781;28;12071;-67
2023/01/21 14:43:43;;;;;;;;;1.00;1.00;;;;;;;;5030273;28;11375;-65
2023/01/21 14:46:23;;;;;;;;;0.67;0.67;;;;;;;;5032222;28;8830;-68
2023/01/21 14:48:56;;;;;;;;;1.33;1.00;;;;;;;;5013834;28;11434;-68
2023/01/21 14:51:21;;;;;;;;;4.00;2.00;;;;;;;;5032168;28;11426;-65
2023/01/21 15:05:48;;;;;;;;;1.00;1.00;;;;;;;;5119504;27;13508;-71
2023/01/21 15:08:18;;;;;;;;;1.00;1.00;;;;;;;;5125910;27;8810;-71
2023/01/21 15:10:49;;;;;;;;;1.00;1.00;;;;;;;;5127707;27;9538;-71
2023/01/21 15:13:20;;;;;;;;;1.00;1.00;;;;;;;;5125742;27;11461;-68
2023/01/21 15:16:04;;;;;;;;;0.00;0.00;;;;;;;;5105157;27;8845;-68
2023/01/21 15:18:41;;;;;;;;;0.00;0.00;;;;;;;;5094672;22;11491;-68
2023/01/21 15:21:27;;;;;;;;;2.00;0.75;;;;;;;;5066020;28;11470;-68
2023/01/21 15:24:11;;;;;;;;;0.33;0.33;;;;;;;;5047391;28;11481;-68
2023/01/21 15:26:36;;;;;;;;;1.00;0.00;;;;;;;;5062739;28;11472;-65
2023/01/21 15:29:20;;;;;;;;;1.00;1.00;;;;;;;;5065546;28;11430;-67
2023/01/21 15:31:45;;;;;;;;;0.00;0.00;;;;;;;;5065430;28;8929;-66
2023/01/21 15:34:13;;;;;;;;;0.00;0.00;;;;;;;;5062059;28;11609;-66
2023/01/21 15:36:45;;;;;;;;;1.00;1.00;;;;;;;;5065798;28;9504;-67
2023/01/21 15:39:37;;;;;;;;;5.67;3.67;;;;;;;;5065080;28;12342;-68
2023/01/21 15:42:17;;;;;;;;;1.00;1.00;;;;;;;;5062313;28;11563;-67
2023/01/21 15:45:01;;;;;;;;;0.00;0.00;;;;;;;;5063412;28;11491;-67
2023/01/21 15:47:32;;;;;;;;;0.00;0.00;;;;;;;;5065688;28;11445;-67
2023/01/21 15:50:06;;;;;;;;;2.00;0.00;;;;;;;;5065155;28;11462;-67
2023/01/21 15:52:35;;;;;;;;;1.00;0.75;;;;;;;;5063834;28;11463;-67
2023/01/21 15:55:20;;;;;;;;;4.33;0.33;;;;;;;;5063070;28;11702;-68
2023/01/21 15:58:05;;;;;;;;;2.00;1.00;;;;;;;;5065165;28;12176;-67
2023/01/21 16:00:53;;;;;;;;;1.00;1.00;;;;;;;;5065117;28;11466;-67
2023/01/21 16:03:23;;;;;;;;;1.00;1.00;;;;;;;;5061390;28;11486;-66
2023/01/21 16:05:53;;;;;;;;;0.00;0.00;;;;;;;;5064840;28;11457;-67
2023/01/21 16:08:32;;;;;;;;;1.00;1.00;;;;;;;;5064873;28;11415;-67
2023/01/21 16:11:06;;;;;;;;;1.00;1.00;;;;;;;;5064664;28;11439;-66
2023/01/21 16:13:51;;;;;;;;;1.00;1.00;;;;;;;;5064712;28;11465;-66
2023/01/21 16:16:55;;;;;;;;;0.50;0.50;;;;;;;;5064520;28;12223;-68
2023/01/21 16:19:32;;;;;;;;;1.00;0.00;;;;;;;;5038052;28;11491;-66
2023/01/21 16:22:00;;;;;;;;;1.00;1.00;;;;;;;;5029033;28;11499;-66
2023/01/21 16:24:26;;;;;;;;;1.75;0.00;;;;;;;;5012049;28;11438;-67
2023/01/21 16:26:52;;;;;;;;;0.00;0.00;;;;;;;;5028950;28;11500;-66
2023/01/21 16:29:17;;;;;;;;;0.75;0.75;;;;;;;;5028972;28;11504;-68
2023/01/21 16:31:49;;;;;;;;;0.00;0.00;;;;;;;;5028697;28;9529;-67
2023/01/21 16:34:23;;;;;;;;;1.00;1.00;;;;;;;;5029038;28;8824;-66
2023/01/21 16:36:48;;;;;;;;;3.00;0.00;;;;;;;;5028892;28;11449;-67
2023/01/21 16:39:17;;;;;;;;;3.00;0.75;;;;;;;;5028642;28;11395;-67
2023/01/21 16:41:56;;;;;;;;;0.00;0.00;;;;;;;;5029379;28;8829;-65
2023/01/21 16:44:21;;;;;;;;;0.75;0.00;;;;;;;;5028734;28;12208;-64
2023/01/21 16:46:49;;;;;;;;;0.00;0.00;;;;;;;;5041766;28;11417;-66
2023/01/21 16:49:15;;;;;;;;;0.00;0.00;;;;;;;;5051632;28;8808;-67
2023/01/21 16:51:44;;;;;;;;;0.00;0.00;;;;;;;;5071155;28;11477;-66
2023/01/21 16:54:18;;;;;;;;;1.50;0.00;;;;;;;;5070803;28;11449;-66
2023/01/21 16:57:06;;;;;;;;;4.00;1.00;;;;;;;;5068837;28;11492;-66
2023/01/21 16:59:39;;;;;;;;;0.00;0.00;;;;;;;;5029601;28;11481;-67